Time;durP1;ratioP1;P1;durP2;ratioP2;P2;SDS_P1;SDS_P2;PMS_P1;PMS_P2;Temp;Humidity;BMP_temperature;BMP_pressure;BME280_temperature;BME280_humidity;BME280_pressure;Samples;Min_cycle;Max_cycle;Signal;HPM_P1;HPM_P2
2023/10/12 00:00:41;;;;;;;16.75;2.22;;;;;;;;;;5072700;28;20477;-56
2023/10/12 00:03:13;;;;;;;17.23;2.63;;;;;;;;;;5070329;28;20071;-57
2023/10/12 00:05:45;;;;;;;19.23;2.83;;;;;;;;;;5070593;28;20488;-56
2023/10/12 00:08:24;;;;;;;14.88;3.08;;;;;;;;;;5075903;28;20049;-56
2023/10/12 00:10:54;;;;;;;20.58;3.65;;;;;;;;;;5083475;28;20065;-56
2023/10/12 00:13:22;;;;;;;17.85;3.38;;;;;;;;;;5065485;28;20050;-56
2023/10/12 00:15:48;;;;;;;20.25;2.58;;;;;;;;;;5079417;28;20092;-56
2023/10/12 00:18:16;;;;;;;17.50;3.03;;;;;;;;;;5073318;28;20048;-56
2023/10/12 00:20:51;;;;;;;24.17;2.75;;;;;;;;;;5079989;28;20063;-56
2023/10/12 00:23:17;;;;;;;16.15;2.67;;;;;;;;;;5075848;28;20071;-56
2023/10/12 00:25:47;;;;;;;17.60;2.47;;;;;;;;;;5077828;28;20165;-57
2023/10/12 00:28:18;;;;;;;17.13;3.05;;;;;;;;;;5077676;28;20088;-56
2023/10/12 00:30:49;;;;;;;19.10;2.50;;;;;;;;;;5080874;28;20504;-56
2023/10/12 00:33:17;;;;;;;16.35;2.90;;;;;;;;;;5082694;28;20069;-56
2023/10/12 00:35:49;;;;;;;15.50;2.00;;;;;;;;;;5071672;28;20041;-56
2023/10/12 00:38:18;;;;;;;14.35;3.10;;;;;;;;;;5076855;28;20407;-57
2023/10/12 00:40:57;;;;;;;10.60;2.85;;;;;;;;;;5078497;28;20400;-56
2023/10/12 00:43:32;;;;;;;14.05;2.95;;;;;;;;;;5066495;28;20501;-57
2023/10/12 00:45:58;;;;;;;13.70;2.30;;;;;;;;;;5071153;28;20096;-56
2023/10/12 00:48:29;;;;;;;15.85;2.33;;;;;;;;;;5090964;28;20388;-56
2023/10/12 00:50:57;;;;;;;14.00;2.35;;;;;;;;;;5072127;28;20052;-56
2023/10/12 00:53:31;;;;;;;13.57;2.10;;;;;;;;;;5080385;28;20040;-56
2023/10/12 00:55:57;;;;;;;12.25;2.35;;;;;;;;;;5067279;28;20036;-56
2023/10/12 00:58:23;;;;;;;16.52;1.98;;;;;;;;;;5079232;28;20032;-56
2023/10/12 01:00:52;;;;;;;8.90;2.10;;;;;;;;;;5063319;28;20040;-56
2023/10/12 01:03:38;;;;;;;17.42;2.15;;;;;;;;;;5067870;28;20071;-56
2023/10/12 01:08:46;;;;;;;13.73;3.08;;;;;;;;;;5078611;28;20141;-56
2023/10/12 01:11:37;;;;;;;10.70;1.80;;;;;;;;;;5078224;28;20051;-56
2023/10/12 01:16:36;;;;;;;10.57;1.70;;;;;;;;;;5065535;28;20488;-56
2023/10/12 01:19:05;;;;;;;12.50;1.95;;;;;;;;;;5064243;28;20397;-56
2023/10/12 01:21:35;;;;;;;11.70;2.10;;;;;;;;;;5071817;28;20110;-56
2023/10/12 01:24:12;;;;;;;13.23;1.92;;;;;;;;;;5066294;28;20459;-56
2023/10/12 01:26:43;;;;;;;7.85;1.58;;;;;;;;;;5077238;28;20116;-56
2023/10/12 01:29:17;;;;;;;11.93;1.70;;;;;;;;;;5071849;28;20060;-56
2023/10/12 01:31:49;;;;;;;11.75;2.00;;;;;;;;;;5072290;28;20052;-56
2023/10/12 01:34:17;;;;;;;9.80;2.00;;;;;;;;;;5079290;28;20059;-56
2023/10/12 01:36:43;;;;;;;15.10;2.10;;;;;;;;;;5075221;28;20048;-56
2023/10/12 01:39:14;;;;;;;17.52;2.22;;;;;;;;;;5067098;28;20056;-56
2023/10/12 01:41:40;;;;;;;12.75;1.80;;;;;;;;;;5071230;28;20051;-56
2023/10/12 01:44:11;;;;;;;12.43;2.13;;;;;;;;;;5081695;28;20165;-57
2023/10/12 01:46:41;;;;;;;14.13;1.92;;;;;;;;;;5078210;28;20094;-56
2023/10/12 01:49:14;;;;;;;9.25;2.55;;;;;;;;;;5080722;28;20047;-56
2023/10/12 01:51:45;;;;;;;;;;;;;;;;;;5080366;28;20160;-56
2023/10/12 01:54:22;;;;;;;14.05;1.80;;;;;;;;;;5071396;28;19924;-57
2023/10/12 01:56:51;;;;;;;12.02;2.22;;;;;;;;;;5084140;28;20040;-56
2023/10/12 01:59:19;;;;;;;11.77;1.92;;;;;;;;;;5069675;28;20048;-56
2023/10/12 02:01:47;;;;;;;15.43;1.92;;;;;;;;;;5070148;28;20044;-56
2023/10/12 02:04:13;;;;;;;14.35;2.10;;;;;;;;;;5074638;28;20098;-56
2023/10/12 02:06:40;;;;;;;10.55;1.70;;;;;;;;;;5073301;28;20031;-57
2023/10/12 02:09:10;;;;;;;6.95;1.45;;;;;;;;;;5070449;28;20048;-56
2023/10/12 02:11:42;;;;;;;6.00;1.42;;;;;;;;;;5076600;28;20142;-56
2023/10/12 02:14:11;;;;;;;8.10;1.63;;;;;;;;;;5079944;28;20085;-57
2023/10/12 02:16:37;;;;;;;7.25;1.50;;;;;;;;;;5077160;28;20120;-56
2023/10/12 02:19:04;;;;;;;13.73;1.98;;;;;;;;;;5068558;28;20576;-56
2023/10/12 02:21:33;;;;;;;13.10;2.10;;;;;;;;;;5077334;28;20043;-56
2023/10/12 02:34:41;;;;;;;6.40;1.70;;;;;;;;;;5080241;28;20047;-56
2023/10/12 02:39:38;;;;;;;12.55;2.15;;;;;;;;;;5071899;28;20037;-56
2023/10/12 02:42:17;;;;;;;13.55;1.80;;;;;;;;;;5080363;28;20052;-56
2023/10/12 02:47:22;;;;;;;10.25;1.90;;;;;;;;;;5081996;28;20052;-56
2023/10/12 02:49:49;;;;;;;8.40;1.85;;;;;;;;;;5073601;28;20040;-57
2023/10/12 02:52:15;;;;;;;15.52;2.60;;;;;;;;;;5075970;28;20559;-56
2023/10/12 02:54:51;;;;;;;10.10;1.75;;;;;;;;;;5083281;28;20448;-56
2023/10/12 02:57:24;;;;;;;12.32;1.60;;;;;;;;;;5071128;28;20048;-57
2023/10/12 03:00:01;;;;;;;11.30;1.60;;;;;;;;;;5072469;28;20048;-56
2023/10/12 03:02:33;;;;;;;8.35;1.45;;;;;;;;;;5074283;28;20044;-57
2023/10/12 03:05:06;;;;;;;12.38;3.40;;;;;;;;;;5080808;28;20086;-57
2023/10/12 03:07:35;;;;;;;11.55;2.03;;;;;;;;;;5076154;28;20070;-57
2023/10/12 03:10:06;;;;;;;6.45;1.30;;;;;;;;;;5070200;28;20040;-56
2023/10/12 03:12:35;;;;;;;15.48;2.00;;;;;;;;;;5073773;28;20053;-56
2023/10/12 03:15:11;;;;;;;8.40;1.48;;;;;;;;;;5071942;28;20056;-56
2023/10/12 03:17:41;;;;;;;8.43;1.83;;;;;;;;;;5083480;28;20044;-56
2023/10/12 03:20:22;;;;;;;15.50;1.85;;;;;;;;;;5069474;28;20162;-56
2023/10/12 03:22:59;;;;;;;12.15;1.60;;;;;;;;;;5090900;28;20048;-56
2023/10/12 03:25:43;;;;;;;16.13;2.65;;;;;;;;;;5078967;28;20044;-56
2023/10/12 03:28:17;;;;;;;18.42;2.05;;;;;;;;;;5073617;28;20552;-57
2023/10/12 03:30:44;;;;;;;12.52;2.03;;;;;;;;;;5087907;28;20084;-56
2023/10/12 03:33:15;;;;;;;8.48;1.60;;;;;;;;;;5065706;28;20116;-56
2023/10/12 03:35:57;;;;;;;10.25;1.90;;;;;;;;;;5072430;28;20067;-56
2023/10/12 03:38:32;;;;;;;16.88;2.10;;;;;;;;;;5061564;28;20119;-56
2023/10/12 03:43:48;;;;;;;15.23;2.33;;;;;;;;;;5068349;28;20462;-56
2023/10/12 03:46:26;;;;;;;14.30;2.03;;;;;;;;;;5064261;28;20448;-57
2023/10/12 03:51:57;;;;;;;10.35;1.98;;;;;;;;;;5040898;28;20056;-57
2023/10/12 03:54:31;;;;;;;13.87;2.00;;;;;;;;;;5079056;28;20051;-56
2023/10/12 03:57:19;;;;;;;15.25;2.03;;;;;;;;;;5075005;28;20110;-57
2023/10/12 04:00:24;;;;;;;15.70;4.00;;;;;;;;;;5066164;28;20725;-56
2023/10/12 04:05:21;;;;;;;10.95;1.80;;;;;;;;;;5074312;28;20066;-57
2023/10/12 04:11:19;;;;;;;14.38;2.05;;;;;;;;;;5071567;28;20132;-56
2023/10/12 04:13:55;;;;;;;16.67;1.95;;;;;;;;;;5062903;28;20101;-56
2023/10/12 04:18:41;;;;;;;12.68;2.50;;;;;;;;;;5070636;28;20503;-57
2023/10/12 04:21:10;;;;;;;12.45;1.33;;;;;;;;;;5066888;28;20045;-56
2023/10/12 04:23:45;;;;;;;12.32;2.20;;;;;;;;;;5073443;28;20048;-56
2023/10/12 04:28:43;;;;;;;9.80;1.70;;;;;;;;;;5069117;28;20535;-56
2023/10/12 04:33:43;;;;;;;12.98;2.47;;;;;;;;;;5081549;28;20063;-56
2023/10/12 04:36:13;;;;;;;9.15;2.05;;;;;;;;;;5065967;28;20115;-57
2023/10/12 04:43:52;;;;;;;6.65;1.38;;;;;;;;;;5070455;28;20044;-56
2023/10/12 04:49:38;;;;;;;13.75;1.60;;;;;;;;;;5058515;28;20048;-56
2023/10/12 04:51:51;;;;;;;13.25;1.88;;;;;;;;;;5069707;28;20113;-56
2023/10/12 04:54:23;;;;;;;9.10;1.85;;;;;;;;;;5070633;28;20071;-57
2023/10/12 04:56:57;;;;;;;9.63;1.60;;;;;;;;;;5067714;28;20041;-56
2023/10/12 04:59:42;;;;;;;;;;;;;;;;;;5071183;28;20064;-56
2023/10/12 05:09:49;;;;;;;14.48;2.20;;;;;;;;;;5065615;28;20202;-56
2023/10/12 05:12:18;;;;;;;11.35;1.88;;;;;;;;;;5068715;28;20412;-57
2023/10/12 05:14:44;;;;;;;7.55;1.80;;;;;;;;;;5061861;28;20447;-57
2023/10/12 05:17:11;;;;;;;13.98;1.45;;;;;;;;;;5068183;28;20163;-57
2023/10/12 05:19:37;;;;;;;8.95;1.65;;;;;;;;;;5070756;28;20082;-56
2023/10/12 05:22:03;;;;;;;9.30;2.00;;;;;;;;;;5070341;28;20160;-57
2023/10/12 05:24:29;;;;;;;10.68;1.73;;;;;;;;;;5066470;28;20377;-56
2023/10/12 05:27:09;;;;;;;12.35;1.73;;;;;;;;;;5067499;28;20041;-56
2023/10/12 05:29:38;;;;;;;12.38;1.77;;;;;;;;;;5064622;28;20056;-56
2023/10/12 05:39:47;;;;;;;12.80;1.80;;;;;;;;;;5060264;28;20041;-56
2023/10/12 05:42:20;;;;;;;12.35;1.77;;;;;;;;;;5060704;28;20064;-57
2023/10/12 05:44:48;;;;;;;13.95;2.13;;;;;;;;;;5058530;28;20049;-57
2023/10/12 05:47:17;;;;;;;7.82;1.50;;;;;;;;;;5059576;28;20055;-57
2023/10/12 05:49:50;;;;;;;12.15;1.85;;;;;;;;;;5060362;28;20056;-57
2023/10/12 05:52:17;;;;;;;11.40;1.65;;;;;;;;;;5059713;28;20048;-56
2023/10/12 05:54:43;;;;;;;8.20;1.98;;;;;;;;;;5059300;28;20140;-56
2023/10/12 05:57:19;;;;;;;10.10;2.65;;;;;;;;;;5059886;28;20094;-57
2023/10/12 05:59:47;;;;;;;6.72;1.40;;;;;;;;;;5059508;28;20430;-56
2023/10/12 06:02:17;;;;;;;12.82;1.75;;;;;;;;;;5057280;28;20094;-56
2023/10/12 06:04:44;;;;;;;14.23;1.83;;;;;;;;;;5060670;28;20047;-56
2023/10/12 06:07:10;;;;;;;8.00;1.40;;;;;;;;;;5060857;28;20056;-56
2023/10/12 06:09:40;;;;;;;13.88;2.28;;;;;;;;;;5059912;28;20388;-62
2023/10/12 06:12:07;;;;;;;7.72;1.17;;;;;;;;;;5057142;28;20499;-56
2023/10/12 06:14:38;;;;;;;9.88;2.28;;;;;;;;;;5059266;28;20127;-56
2023/10/12 06:17:21;;;;;;;11.57;1.58;;;;;;;;;;5063372;28;20183;-57
2023/10/12 06:19:54;;;;;;;9.30;2.00;;;;;;;;;;5063412;28;20044;-57
2023/10/12 06:22:23;;;;;;;8.48;1.65;;;;;;;;;;5063000;28;20060;-57
2023/10/12 06:24:52;;;;;;;11.25;2.13;;;;;;;;;;5064848;28;20480;-56
2023/10/12 06:29:47;;;;;;;13.98;2.08;;;;;;;;;;5063911;28;20381;-56
2023/10/12 06:32:25;;;;;;;9.25;1.52;;;;;;;;;;5063387;28;20116;-57
2023/10/12 06:35:12;;;;;;;14.23;2.20;;;;;;;;;;5062049;28;20123;-56
2023/10/12 06:51:02;;;;;;;10.73;1.73;;;;;;;;;;5062135;28;20128;-56
2023/10/12 06:53:34;;;;;;;10.35;1.70;;;;;;;;;;5066017;28;20085;-56
2023/10/12 07:02:09;;;;;;;6.53;1.75;;;;;;;;;;5041722;28;20041;-56
2023/10/12 07:04:53;;;;;;;12.90;2.42;;;;;;;;;;5042059;28;20167;-57
2023/10/12 07:07:26;;;;;;;9.52;2.42;;;;;;;;;;5061333;28;20382;-57
2023/10/12 07:09:53;;;;;;;12.52;3.15;;;;;;;;;;5069344;28;20043;-56
2023/10/12 07:12:19;;;;;;;12.05;2.28;;;;;;;;;;5068212;28;20472;-57
2023/10/12 07:14:53;;;;;;;13.82;2.10;;;;;;;;;;5071752;28;20076;-56
2023/10/12 07:17:30;;;;;;;13.07;1.95;;;;;;;;;;5070089;28;20097;-57
2023/10/12 07:19:56;;;;;;;8.50;2.35;;;;;;;;;;5071421;28;20052;-57
2023/10/12 07:22:23;;;;;;;11.77;1.65;;;;;;;;;;5071416;28;20131;-56
2023/10/12 07:24:53;;;;;;;10.57;1.83;;;;;;;;;;5071655;28;20041;-57
2023/10/12 07:27:21;;;;;;;10.55;1.92;;;;;;;;;;5070168;28;20086;-57
2023/10/12 07:29:51;;;;;;;12.18;1.95;;;;;;;;;;5055061;28;20083;-57
2023/10/12 07:34:54;;;;;;;10.95;1.75;;;;;;;;;;5072183;28;20049;-56
2023/10/12 07:37:21;;;;;;;11.68;1.60;;;;;;;;;;5068742;28;20041;-56
2023/10/12 07:39:50;;;;;;;6.95;1.85;;;;;;;;;;5070571;28;20129;-57
2023/10/12 07:42:25;;;;;;;10.23;1.55;;;;;;;;;;5071311;28;20105;-56
2023/10/12 07:44:54;;;;;;;7.75;1.95;;;;;;;;;;5071071;28;20047;-57
2023/10/12 07:47:40;;;;;;;9.05;2.10;;;;;;;;;;5072061;28;20107;-56
2023/10/12 07:50:11;;;;;;;14.88;2.75;;;;;;;;;;5072053;28;20096;-57
2023/10/12 07:55:06;;;;;;;10.20;2.38;;;;;;;;;;5071397;28;20040;-57
2023/10/12 07:57:36;;;;;;;11.38;2.05;;;;;;;;;;5071852;28;20049;-57
2023/10/12 08:13:16;;;;;;;15.25;2.53;;;;;;;;;;5070611;28;20523;-57
2023/10/12 08:23:57;;;;;;;20.52;2.55;;;;;;;;;;5071332;28;20064;-57
2023/10/12 08:26:35;;;;;;;13.02;2.50;;;;;;;;;;5055649;28;20064;-57
2023/10/12 08:29:09;;;;;;;15.77;2.38;;;;;;;;;;5069805;28;20063;-57
2023/10/12 08:31:43;;;;;;;11.40;2.60;;;;;;;;;;5058339;28;20071;-57
2023/10/12 08:39:50;;;;;;;8.85;2.35;;;;;;;;;;5062508;28;20044;-57
2023/10/12 08:44:46;;;;;;;15.35;2.38;;;;;;;;;;5069729;28;19958;-57
2023/10/12 08:47:24;;;;;;;15.73;2.83;;;;;;;;;;5070116;28;20052;-57
2023/10/12 08:49:53;;;;;;;10.90;2.08;;;;;;;;;;5070829;28;20036;-57
2023/10/12 08:52:27;;;;;;;16.48;3.17;;;;;;;;;;5070036;28;20684;-57
2023/10/12 08:55:03;;;;;;;13.50;2.72;;;;;;;;;;5069951;28;20131;-57
2023/10/12 08:57:52;;;;;;;11.55;1.95;;;;;;;;;;5069058;28;20520;-57
2023/10/12 09:03:08;;;;;;;8.82;2.33;;;;;;;;;;5068284;28;20052;-57
2023/10/12 09:05:35;;;;;;;14.80;2.42;;;;;;;;;;5056044;28;20166;-57
2023/10/12 09:13:28;;;;;;;9.48;2.20;;;;;;;;;;5068811;28;20530;-58
2023/10/12 09:15:55;;;;;;;11.57;2.58;;;;;;;;;;5068818;28;20500;-57
2023/10/12 09:18:29;;;;;;;10.65;1.70;;;;;;;;;;5070563;28;20063;-57
2023/10/12 09:23:30;;;;;;;11.15;2.30;;;;;;;;;;5068637;28;20441;-57
2023/10/12 09:26:14;;;;;;;13.63;2.28;;;;;;;;;;5070385;28;20510;-57
2023/10/12 09:36:29;;;;;;;12.75;2.28;;;;;;;;;;5069137;28;20363;-61
2023/10/12 09:39:00;;;;;;;11.10;2.53;;;;;;;;;;5068682;28;20041;-57
2023/10/12 09:41:29;;;;;;;16.80;2.28;;;;;;;;;;5069289;28;20155;-57
2023/10/12 09:43:58;;;;;;;9.02;1.80;;;;;;;;;;5069557;28;20052;-57
2023/10/12 09:46:27;;;;;;;9.95;1.90;;;;;;;;;;5069170;28;20115;-57
2023/10/12 09:49:02;;;;;;;17.08;2.67;;;;;;;;;;5069017;28;20422;-57
2023/10/12 09:51:33;;;;;;;13.98;2.58;;;;;;;;;;5069963;28;20066;-57
2023/10/12 09:54:05;;;;;;;9.30;1.58;;;;;;;;;;5074257;28;20040;-57
2023/10/12 09:56:44;;;;;;;8.90;1.80;;;;;;;;;;5074156;28;20041;-57
2023/10/12 09:59:18;;;;;;;14.85;1.92;;;;;;;;;;5072579;28;20096;-57
2023/10/12 10:07:17;;;;;;;13.10;1.90;;;;;;;;;;5071522;28;20500;-57
2023/10/12 10:10:06;;;;;;;12.00;3.53;;;;;;;;;;5074031;28;20040;-57
2023/10/12 10:12:35;;;;;;;10.95;2.53;;;;;;;;;;5071726;28;20048;-58
2023/10/12 10:15:13;;;;;;;10.95;1.60;;;;;;;;;;5072140;28;20041;-58
2023/10/12 10:17:47;;;;;;;15.20;2.28;;;;;;;;;;5071506;28;20048;-58
2023/10/12 10:22:57;;;;;;;10.73;1.80;;;;;;;;;;5073487;28;20040;-57
2023/10/12 10:25:27;;;;;;;9.48;1.98;;;;;;;;;;5072081;28;20048;-58
2023/10/12 10:27:56;;;;;;;17.85;1.98;;;;;;;;;;5072284;28;20526;-58
2023/10/12 10:30:36;;;;;;;15.38;1.80;;;;;;;;;;5073442;28;20040;-58
2023/10/12 10:33:12;;;;;;;8.88;1.80;;;;;;;;;;5071989;28;20048;-58
2023/10/12 10:35:58;;;;;;;12.98;2.00;;;;;;;;;;5073459;28;20056;-58
2023/10/12 10:38:30;;;;;;;8.80;1.52;;;;;;;;;;5071807;28;20084;-58
2023/10/12 10:41:05;;;;;;;9.93;1.98;;;;;;;;;;5069338;28;20067;-58
2023/10/12 10:43:37;;;;;;;9.30;1.73;;;;;;;;;;5064529;28;20048;-58
2023/10/12 10:46:06;;;;;;;10.75;2.03;;;;;;;;;;5073193;28;20389;-58
2023/10/12 10:48:38;;;;;;;8.88;1.52;;;;;;;;;;5070963;28;20131;-58
2023/10/12 10:51:11;;;;;;;13.30;2.38;;;;;;;;;;5072411;28;20513;-58
2023/10/12 10:53:40;;;;;;;8.48;1.80;;;;;;;;;;5058645;28;20041;-58
2023/10/12 10:56:34;;;;;;;8.75;1.95;;;;;;;;;;5072177;28;20138;-58
2023/10/12 10:58:58;;;;;;;11.30;1.85;;;;;;;;;;5061441;28;20052;-58
2023/10/12 11:01:26;;;;;;;8.20;1.55;;;;;;;;;;5070569;28;20071;-58
2023/10/12 11:03:58;;;;;;;11.63;1.88;;;;;;;;;;5071928;28;20059;-58
2023/10/12 11:06:27;;;;;;;7.70;1.52;;;;;;;;;;5072593;28;20044;-58
2023/10/12 11:09:07;;;;;;;11.88;2.22;;;;;;;;;;5070866;28;20459;-58
2023/10/12 11:11:37;;;;;;;10.18;1.88;;;;;;;;;;5066307;28;20083;-58
2023/10/12 11:14:10;;;;;;;12.13;2.00;;;;;;;;;;5059240;28;20512;-58
2023/10/12 11:16:43;;;;;;;9.55;1.65;;;;;;;;;;5071886;28;20132;-58
2023/10/12 11:19:10;;;;;;;9.68;2.00;;;;;;;;;;5072568;28;20037;-58
2023/10/12 11:21:36;;;;;;;11.77;1.75;;;;;;;;;;5071727;28;20471;-58
2023/10/12 11:24:09;;;;;;;11.90;1.70;;;;;;;;;;5067785;28;20103;-58
2023/10/12 11:26:51;;;;;;;10.70;1.70;;;;;;;;;;5072647;28;20041;-58
2023/10/12 11:29:18;;;;;;;8.82;1.75;;;;;;;;;;5071168;28;20127;-58
2023/10/12 11:31:46;;;;;;;13.68;2.10;;;;;;;;;;5072509;28;20045;-58
2023/10/12 11:34:13;;;;;;;8.32;1.85;;;;;;;;;;5071219;28;20036;-58
2023/10/12 11:36:39;;;;;;;14.38;2.65;;;;;;;;;;5071466;28;20067;-58
2023/10/12 11:39:21;;;;;;;8.77;1.70;;;;;;;;;;5070479;28;20463;-58
2023/10/12 11:42:12;;;;;;;9.75;1.92;;;;;;;;;;5059023;28;20068;-58
2023/10/12 11:44:42;;;;;;;11.15;2.33;;;;;;;;;;5071078;28;20056;-58
2023/10/12 11:47:14;;;;;;;13.68;1.75;;;;;;;;;;5072339;28;20040;-58
2023/10/12 11:50:09;;;;;;;10.88;1.70;;;;;;;;;;5069424;28;20143;-58
2023/10/12 11:52:39;;;;;;;9.68;2.03;;;;;;;;;;5070249;28;20076;-58
2023/10/12 11:55:06;;;;;;;9.90;2.35;;;;;;;;;;5071804;28;20102;-58
2023/10/12 11:57:40;;;;;;;10.85;2.47;;;;;;;;;;5069952;28;20040;-58
2023/10/12 12:00:26;;;;;;;8.27;1.42;;;;;;;;;;5070371;28;20051;-58
2023/10/12 12:02:57;;;;;;;12.27;2.47;;;;;;;;;;5062547;28;20052;-58
2023/10/12 12:05:33;;;;;;;8.10;1.80;;;;;;;;;;5069455;28;20127;-58
2023/10/12 12:08:06;;;;;;;10.13;1.90;;;;;;;;;;5071319;28;20051;-58
2023/10/12 12:10:44;;;;;;;8.50;1.60;;;;;;;;;;5071539;28;20036;-58
2023/10/12 12:13:12;;;;;;;11.18;1.98;;;;;;;;;;5070377;28;20051;-58
2023/10/12 12:15:44;;;;;;;13.60;2.35;;;;;;;;;;5069814;28;20145;-58
2023/10/12 12:18:17;;;;;;;6.63;1.10;;;;;;;;;;5068968;28;20084;-58
2023/10/12 12:20:47;;;;;;;8.43;1.60;;;;;;;;;;5070072;28;20059;-58
2023/10/12 12:23:14;;;;;;;7.90;1.73;;;;;;;;;;5069067;28;20088;-58
2023/10/12 12:25:41;;;;;;;7.65;1.40;;;;;;;;;;5070171;28;20080;-58
2023/10/12 12:28:08;;;;;;;11.32;2.25;;;;;;;;;;5071144;28;20050;-58
2023/10/12 12:30:35;;;;;;;9.63;1.90;;;;;;;;;;5069601;28;20538;-58
2023/10/12 12:33:08;;;;;;;9.90;1.52;;;;;;;;;;5069524;28;20040;-58
2023/10/12 12:35:38;;;;;;;8.77;1.90;;;;;;;;;;5069813;28;20114;-58
2023/10/12 12:38:14;;;;;;;8.93;2.08;;;;;;;;;;5071042;28;20116;-58
2023/10/12 12:40:44;;;;;;;12.48;2.70;;;;;;;;;;5068821;28;20044;-57
2023/10/12 12:43:11;;;;;;;13.55;2.35;;;;;;;;;;5070196;28;20079;-58
2023/10/12 12:45:37;;;;;;;8.05;1.70;;;;;;;;;;5071165;28;20033;-58
2023/10/12 12:48:06;;;;;;;8.52;1.73;;;;;;;;;;5068264;28;20048;-58
2023/10/12 12:50:33;;;;;;;10.40;2.58;;;;;;;;;;5070981;28;20396;-58
2023/10/12 12:52:59;;;;;;;8.45;1.52;;;;;;;;;;5069861;28;20436;-57
2023/10/12 12:55:27;;;;;;;10.30;2.30;;;;;;;;;;5069373;28;20032;-58
2023/10/12 12:57:56;;;;;;;8.10;2.03;;;;;;;;;;5070811;28;20155;-57
2023/10/12 13:00:22;;;;;;;9.10;2.08;;;;;;;;;;5069742;28;20386;-58
2023/10/12 13:02:49;;;;;;;10.77;1.70;;;;;;;;;;5068894;28;20056;-58
2023/10/12 13:05:15;;;;;;;5.72;1.60;;;;;;;;;;5068048;28;20048;-58
2023/10/12 13:07:45;;;;;;;9.15;1.95;;;;;;;;;;5065712;28;20151;-58
2023/10/12 13:10:12;;;;;;;9.05;1.65;;;;;;;;;;5067508;28;20486;-58
2023/10/12 13:12:40;;;;;;;9.68;1.98;;;;;;;;;;5070677;28;20140;-58
2023/10/12 13:15:10;;;;;;;13.40;2.15;;;;;;;;;;5063797;28;20087;-58
2023/10/12 13:17:40;;;;;;;11.98;1.92;;;;;;;;;;5063149;28;20181;-58
2023/10/12 13:20:17;;;;;;;13.85;2.08;;;;;;;;;;5065379;28;20041;-58
2023/10/12 13:22:44;;;;;;;10.10;1.70;;;;;;;;;;5061613;28;20048;-58
2023/10/12 13:25:17;;;;;;;9.93;2.10;;;;;;;;;;5060894;28;20499;-58
2023/10/12 13:27:44;;;;;;;9.93;2.00;;;;;;;;;;5073624;28;20037;-59
2023/10/12 13:30:11;;;;;;;11.43;2.22;;;;;;;;;;5073338;28;20048;-58
2023/10/12 13:32:38;;;;;;;7.93;1.75;;;;;;;;;;5074528;28;20488;-58
2023/10/12 13:37:48;;;;;;;10.52;1.77;;;;;;;;;;5072179;28;20044;-58
2023/10/12 13:40:18;;;;;;;18.05;2.17;;;;;;;;;;5073243;28;20056;-57
2023/10/12 13:42:44;;;;;;;9.43;1.55;;;;;;;;;;5073537;28;20044;-58
2023/10/12 13:45:12;;;;;;;7.63;1.95;;;;;;;;;;5074252;28;20182;-58
2023/10/12 13:47:42;;;;;;;8.25;1.40;;;;;;;;;;5073532;28;20044;-58
2023/10/12 13:50:11;;;;;;;9.85;1.67;;;;;;;;;;5072200;28;20100;-57
2023/10/12 13:52:37;;;;;;;7.25;1.58;;;;;;;;;;5072570;28;20091;-58
2023/10/12 13:55:11;;;;;;;10.15;1.60;;;;;;;;;;5073004;28;20044;-58
2023/10/12 13:57:57;;;;;;;8.93;1.88;;;;;;;;;;5073232;28;20048;-57
2023/10/12 14:00:27;;;;;;;10.18;1.73;;;;;;;;;;5064679;28;20053;-57
2023/10/12 14:02:57;;;;;;;13.05;1.80;;;;;;;;;;5066424;28;20357;-57
2023/10/12 14:05:27;;;;;;;14.10;2.05;;;;;;;;;;5067163;28;20131;-58
2023/10/12 14:07:54;;;;;;;7.65;2.03;;;;;;;;;;5068518;28;20080;-57
2023/10/12 14:10:21;;;;;;;10.38;2.53;;;;;;;;;;5068775;28;20032;-57
2023/10/12 14:12:47;;;;;;;11.43;1.63;;;;;;;;;;5064266;28;20163;-57
2023/10/12 14:15:14;;;;;;;11.82;2.05;;;;;;;;;;5062980;28;20644;-57
2023/10/12 14:17:40;;;;;;;10.30;1.90;;;;;;;;;;5065097;28;20040;-57
2023/10/12 14:20:08;;;;;;;8.93;1.60;;;;;;;;;;5064802;28;20052;-57
2023/10/12 14:22:36;;;;;;;13.10;1.83;;;;;;;;;;5063256;28;20173;-57
2023/10/12 14:25:06;;;;;;;13.18;2.00;;;;;;;;;;5062215;28;20043;-57
2023/10/12 14:27:33;;;;;;;8.05;1.60;;;;;;;;;;5063323;28;20115;-57
2023/10/12 14:30:13;;;;;;;12.57;2.42;;;;;;;;;;5063775;28;20049;-57
2023/10/12 14:32:40;;;;;;;15.38;2.13;;;;;;;;;;5065346;28;20040;-57
2023/10/12 14:35:07;;;;;;;12.00;2.05;;;;;;;;;;5063429;28;20048;-57
2023/10/12 14:37:36;;;;;;;15.32;2.20;;;;;;;;;;5064117;28;20045;-57
2023/10/12 14:40:11;;;;;;;10.52;2.00;;;;;;;;;;5063018;28;20091;-57
2023/10/12 14:42:46;;;;;;;9.15;2.08;;;;;;;;;;5063520;28;20412;-57
2023/10/12 14:45:16;;;;;;;11.02;2.00;;;;;;;;;;5060911;28;20044;-57
2023/10/12 14:47:44;;;;;;;11.57;2.45;;;;;;;;;;5063197;28;20137;-57
2023/10/12 14:50:16;;;;;;;13.38;2.50;;;;;;;;;;5063010;28;20408;-57
2023/10/12 14:52:45;;;;;;;12.10;1.70;;;;;;;;;;5061668;28;20068;-58
2023/10/12 14:55:11;;;;;;;10.40;2.40;;;;;;;;;;5066665;28;20125;-56
2023/10/12 14:57:42;;;;;;;10.35;2.55;;;;;;;;;;5073035;28;20124;-57
2023/10/12 15:00:10;;;;;;;15.80;2.28;;;;;;;;;;5072215;28;20190;-57
2023/10/12 15:02:41;;;;;;;12.88;1.83;;;;;;;;;;5064733;28;20506;-57
2023/10/12 15:05:11;;;;;;;8.57;1.80;;;;;;;;;;5070952;28;20360;-57
2023/10/12 15:07:37;;;;;;;14.23;2.85;;;;;;;;;;5071886;28;20036;-57
2023/10/12 15:10:07;;;;;;;13.43;2.42;;;;;;;;;;5064882;28;20041;-58
2023/10/12 15:12:34;;;;;;;16.33;1.70;;;;;;;;;;5070575;28;20135;-58
2023/10/12 15:15:08;;;;;;;11.85;2.38;;;;;;;;;;5068869;28;20060;-57
2023/10/12 15:17:39;;;;;;;11.15;1.95;;;;;;;;;;5072731;28;20048;-57
2023/10/12 15:20:08;;;;;;;15.77;2.15;;;;;;;;;;5072520;28;20430;-57
2023/10/12 15:22:35;;;;;;;12.15;3.13;;;;;;;;;;5070244;28;20044;-57
2023/10/12 15:25:04;;;;;;;13.45;2.83;;;;;;;;;;5071152;28;20053;-58
2023/10/12 15:27:32;;;;;;;13.82;2.25;;;;;;;;;;5072296;28;20088;-57
2023/10/12 15:29:59;;;;;;;11.23;2.00;;;;;;;;;;5071083;28;20052;-58
2023/10/12 15:32:25;;;;;;;13.80;2.45;;;;;;;;;;5067352;28;20091;-58
2023/10/12 15:34:53;;;;;;;12.63;2.50;;;;;;;;;;5067458;28;20128;-58
2023/10/12 15:37:19;;;;;;;12.95;2.53;;;;;;;;;;5067567;28;20488;-57
2023/10/12 15:39:48;;;;;;;13.07;2.15;;;;;;;;;;5072208;28;20040;-57
2023/10/12 15:42:15;;;;;;;11.32;2.45;;;;;;;;;;5069189;28;20052;-60
2023/10/12 15:44:42;;;;;;;9.23;1.70;;;;;;;;;;5071937;28;20504;-59
2023/10/12 15:47:08;;;;;;;9.88;2.03;;;;;;;;;;5070302;28;20048;-59
2023/10/12 15:49:34;;;;;;;11.65;2.08;;;;;;;;;;5069265;28;20049;-59
2023/10/12 15:52:01;;;;;;;13.98;2.70;;;;;;;;;;5070807;28;20052;-59
2023/10/12 15:54:28;;;;;;;12.75;1.98;;;;;;;;;;5071628;28;20048;-59
2023/10/12 15:56:57;;;;;;;10.88;2.05;;;;;;;;;;5068333;28;20048;-59
2023/10/12 15:59:25;;;;;;;10.35;2.05;;;;;;;;;;5071745;28;20052;-59
2023/10/12 16:01:52;;;;;;;17.77;2.88;;;;;;;;;;5067898;28;20041;-59
2023/10/12 16:04:19;;;;;;;11.63;1.85;;;;;;;;;;5069926;28;20048;-59
2023/10/12 16:06:46;;;;;;;14.68;2.30;;;;;;;;;;5070455;28;20501;-59
2023/10/12 16:09:20;;;;;;;11.27;2.65;;;;;;;;;;5071503;28;20072;-63
2023/10/12 16:11:47;;;;;;;16.60;2.60;;;;;;;;;;5065529;28;20524;-59
2023/10/12 16:14:16;;;;;;;9.73;1.88;;;;;;;;;;5066621;28;20090;-59
2023/10/12 16:16:43;;;;;;;12.98;2.35;;;;;;;;;;5066645;28;20089;-59
2023/10/12 16:19:12;;;;;;;12.95;1.98;;;;;;;;;;5068921;28;20045;-59
2023/10/12 16:21:38;;;;;;;12.57;2.35;;;;;;;;;;5043845;28;20517;-59
2023/10/12 16:24:06;;;;;;;15.50;2.10;;;;;;;;;;5068845;28;20717;-59
2023/10/12 16:26:34;;;;;;;7.93;1.60;;;;;;;;;;5071163;28;20048;-59
2023/10/12 16:29:00;;;;;;;13.70;2.20;;;;;;;;;;5070927;28;20114;-59
2023/10/12 16:31:35;;;;;;;14.20;2.75;;;;;;;;;;5069145;28;20060;-59
2023/10/12 16:34:03;;;;;;;13.25;2.83;;;;;;;;;;5069880;28;20101;-59
2023/10/12 16:36:30;;;;;;;8.85;3.13;;;;;;;;;;5068375;28;20500;-59
2023/10/12 16:38:57;;;;;;;17.75;2.03;;;;;;;;;;5070517;28;20048;-59
2023/10/12 16:41:26;;;;;;;8.43;2.25;;;;;;;;;;5070975;28;20037;-59
2023/10/12 16:43:52;;;;;;;11.98;2.10;;;;;;;;;;5070013;28;20048;-59
2023/10/12 16:46:21;;;;;;;15.45;2.33;;;;;;;;;;5070247;28;20123;-59
2023/10/12 16:48:50;;;;;;;13.68;2.58;;;;;;;;;;5070909;28;20454;-59
2023/10/12 16:51:18;;;;;;;17.38;3.20;;;;;;;;;;5064706;28;20036;-59
2023/10/12 16:53:45;;;;;;;15.20;2.65;;;;;;;;;;5070003;28;20088;-59
2023/10/12 16:56:11;;;;;;;12.82;2.72;;;;;;;;;;5069650;28;20067;-59
2023/10/12 16:58:39;;;;;;;11.75;2.28;;;;;;;;;;5070040;28;20093;-60
2023/10/12 17:01:05;;;;;;;18.80;3.28;;;;;;;;;;5069818;28;20040;-59
2023/10/12 17:03:31;;;;;;;15.35;2.50;;;;;;;;;;5070811;28;20365;-59
2023/10/12 17:05:58;;;;;;;14.25;2.65;;;;;;;;;;5069819;28;20071;-59
2023/10/12 17:08:30;;;;;;;11.68;2.95;;;;;;;;;;5069640;28;20052;-58
2023/10/12 17:10:57;;;;;;;12.80;2.50;;;;;;;;;;5070335;28;20448;-60
2023/10/12 17:13:23;;;;;;;16.13;2.85;;;;;;;;;;5069107;28;20055;-58
2023/10/12 17:15:52;;;;;;;15.75;2.33;;;;;;;;;;5068793;28;20044;-57
2023/10/12 17:18:20;;;;;;;14.57;2.17;;;;;;;;;;5064721;28;20091;-58
2023/10/12 17:20:47;;;;;;;13.07;2.85;;;;;;;;;;5077674;28;20047;-59
2023/10/12 17:23:15;;;;;;;12.50;2.33;;;;;;;;;;5070379;28;20055;-58